METAR AND TAF INFORMATION
METAR FOR YBPN
ADDS - METARS form results

(0633 UTC 26 June 2019)
Data provider http://aviationweather.gov/metar/data/
 
METAR text: YBPN 260600Z AUTO 10012KT 9999 // OVC075 21/15 Q1019
Conditions at: YBPN (PROSPERINE AIRPO, AU) observed 0600 UTC 26 June 2019
Temperature: 21.0°C (70°F)
Dewpoint: 15.0°C (59°F) [RH = 69%]
Pressure (altimeter): 30.09 inches Hg (1019.0 mb)
Winds: from the E (100 degrees) at 14 MPH (12 knots; 6.2 m/s)
Visibility: 6 or more miles (10+ km)
Ceiling: 7500 feet AGL
Clouds: overcast cloud deck at 7500 feet AGL
Weather: no significant weather observed at this time

 AIRPORT MAP

 RUNWAY INFORMATION
Runway 06 Runway length 3609 ft Runway width 98 ft
Runway elevation 70 ft Runway displaced threshold 0 ft Runway heading 67
Runway 24 Runway length 3609 ft Runway width 98 ft
Runway elevation 77 ft Runway displaced threshold 0 ft Runway heading 247
Runway 11 Runway length 6801 ft Runway width 148 ft
Runway elevation 58 ft Runway displaced threshold 0 ft Runway heading 115
Runway 29 Runway length 6801 ft Runway width 148 ft
Runway elevation 47 ft Runway displaced threshold 0 ft Runway heading 295

 AIRPORT FREQUENCIES
Type CTAF Name CTAF Frequency 126.7 MHZ
Type FSS Name BRISBANE C Frequency 135.5 MHZ

 AIRPORT NEAR NAVIGATION AIDS
Type VOR-DME Name Proserpine Frequency 113700 KHZ
Type NDB Name Proserpine Frequency 245 KHZ



The South Africal Virtual Air Force